Main page
METAR-TAF:

METAR-TAF

Airports :

Paderborn Lippstadt Airport

Paderborn-Lippstadt, Germany

latitude: 51-37N, longitude: 008-37E, elevation: 213 m

Current weather observation

The report was made 36 minutes ago, at 22:50 UTC
Wind 11 kt from the East/Southeast, varying between East and Southeast
Temperature 11°C
Humidity 43%
Pressure 1007 hPa
Visibility 10 km or more
no clouds below 1500 m and no cumulonimbus

METAR: EDLP 222250Z 11011KT 080V140 CAVOK 11/M01 Q1007

Time: 01:26 (23:26 UTC)

Forecast

The report was made 2 hours and 18 minutes ago, at 21:08 UTC
Forecast valid from 22 at 21 UTC to 23 at 18 UTC
Wind 13 kt from the East with gusts up to 25 kt
Visibility 10 km or more
no clouds below 1500 m and no cumulonimbus
Becoming
from 22 at 21 UTC to 22 at 23 UTC
Wind 9 kt from the East
Becoming
from 23 at 06 UTC to 23 at 08 UTC
Wind 15 kt from the East/Southeast with gusts up to 25 kt

TAF: EDLP 222108Z 2221/2318 09013G25KT CAVOK BECMG 2221/2223 10009KT BECMG 2306/2308 11015G25KT

Weather observations and forecasts of more than 4000 airports (METAR and TAF reports).

The available stations are represented by yellow and red dots on the map.

Hover mouse over dot to see the name of the station.

Then click to see weather observations and forecasts.

To change the map : click on the green buttons with a black cross to zoom in, on the green button with a dash to zoom out, or on the green arrows for adjacent maps.


METAR-TAF: